Time;durP1;ratioP1;P1;durP2;ratioP2;P2;SDS_P1;SDS_P2;PMS_P1;PMS_P2;Temp;Humidity;BMP_temperature;BMP_pressure;BME280_temperature;BME280_humidity;BME280_pressure;Samples;Min_cycle;Max_cycle;Signal;HPM_P1;HPM_P2
2022/05/04 00:01:51;;;;;;;10.57;3.60;;;13.20;56.20;;;;;;5117162;28;20087;-70
2022/05/04 00:04:17;;;;;;;8.55;3.38;;;13.20;56.40;;;;;;5117079;28;20054;-70
2022/05/04 00:06:43;;;;;;;7.88;3.42;;;13.10;56.30;;;;;;5117051;28;20028;-70
2022/05/04 00:09:09;;;;;;;11.57;3.45;;;13.10;56.50;;;;;;5116935;28;20020;-70
2022/05/04 00:11:35;;;;;;;8.43;4.03;;;13.10;56.70;;;;;;5116982;28;20020;-70
2022/05/04 00:14:00;;;;;;;7.78;3.75;;;13.20;56.70;;;;;;5116906;28;20055;-70
2022/05/04 00:16:26;;;;;;;7.70;4.00;;;13.10;56.80;;;;;;5116869;28;20048;-70
2022/05/04 00:18:52;;;;;;;8.93;3.22;;;13.10;56.80;;;;;;5116819;28;20102;-70
2022/05/04 00:21:18;;;;;;;7.28;3.42;;;13.10;56.80;;;;;;5116760;28;20058;-70
2022/05/04 00:23:43;;;;;;;7.78;3.17;;;13.10;56.80;;;;;;5116729;28;20082;-70
2022/05/04 00:26:09;;;;;;;9.48;3.72;;;13.10;56.90;;;;;;5116701;28;20028;-70
2022/05/04 00:28:34;;;;;;;11.52;3.35;;;13.10;57.10;;;;;;5116534;28;20471;-70
2022/05/04 00:31:00;;;;;;;10.48;3.17;;;13.10;57.10;;;;;;5116606;28;20082;-70
2022/05/04 00:33:26;;;;;;;9.00;3.10;;;13.10;57.40;;;;;;5116367;28;20048;-70
2022/05/04 00:35:51;;;;;;;7.47;3.03;;;13.10;57.40;;;;;;5116526;28;20024;-70
2022/05/04 00:38:17;;;;;;;7.35;3.30;;;13.10;57.50;;;;;;5116473;28;20090;-70
2022/05/04 00:40:42;;;;;;;14.10;3.65;;;13.10;57.30;;;;;;5116518;28;20032;-70
2022/05/04 00:43:25;;;;;;;8.80;3.10;;;13.10;57.50;;;;;;5116374;28;20115;-70
2022/05/04 00:45:51;;;;;;;9.65;3.50;;;13.10;57.70;;;;;;5116338;28;20031;-70
2022/05/04 00:48:17;;;;;;;7.40;2.92;;;13.00;58.40;;;;;;5116215;28;20028;-70
2022/05/04 00:50:44;;;;;;;10.77;3.85;;;13.10;57.70;;;;;;5116361;28;20031;-70
2022/05/04 00:53:10;;;;;;;8.43;3.13;;;13.10;57.70;;;;;;5116050;28;20083;-70
2022/05/04 00:55:36;;;;;;;8.50;3.45;;;13.10;57.70;;;;;;5115264;28;20020;-70
2022/05/04 01:00:48;;;;;;;10.00;3.28;;;13.10;57.50;;;;;;5116142;28;20092;-70
2022/05/04 01:03:14;;;;;;;7.03;3.30;;;13.10;57.80;;;;;;5115971;28;20177;-70
2022/05/04 01:05:40;;;;;;;8.43;3.20;;;13.10;57.70;;;;;;5115935;28;20035;-71
2022/05/04 01:08:06;;;;;;;8.45;3.47;;;13.10;57.60;;;;;;5098003;28;20028;-70
2022/05/04 01:10:31;;;;;;;6.68;3.42;;;13.10;57.70;;;;;;5115772;28;20025;-70
2022/05/04 01:12:57;;;;;;;7.57;3.42;;;13.10;57.70;;;;;;5115793;28;20044;-70
2022/05/04 01:15:23;;;;;;;8.20;3.35;;;13.10;57.40;;;;;;5115756;28;20046;-70
2022/05/04 01:17:49;;;;;;;8.73;3.42;;;13.00;57.50;;;;;;5115718;28;20024;-70
2022/05/04 01:20:16;;;;;;;9.65;3.28;;;13.10;57.70;;;;;;5115735;28;20474;-70
2022/05/04 01:22:42;;;;;;;9.77;3.22;;;13.10;57.70;;;;;;5115598;28;20024;-70
2022/05/04 01:25:09;;;;;;;11.80;3.35;;;13.10;57.80;;;;;;5115589;28;20016;-70
2022/05/04 01:27:35;;;;;;;7.13;3.10;;;13.10;57.70;;;;;;5115389;28;20024;-70
2022/05/04 01:30:00;;;;;;;8.18;3.42;;;13.10;57.50;;;;;;5115473;28;20050;-70
2022/05/04 01:32:26;;;;;;;7.05;3.40;;;13.10;57.50;;;;;;5115177;28;20043;-70
2022/05/04 01:34:52;;;;;;;10.10;3.22;;;13.10;57.60;;;;;;5115387;28;20035;-70
2022/05/04 01:37:18;;;;;;;11.90;3.60;;;13.00;57.60;;;;;;5115459;28;20032;-70
2022/05/04 01:39:44;;;;;;;8.80;3.55;;;13.10;57.80;;;;;;5115295;28;20028;-70
2022/05/04 01:42:13;;;;;;;11.15;3.63;;;13.10;57.50;;;;;;5097274;28;20028;-70
2022/05/04 01:44:41;;;;;;;11.60;3.70;;;13.10;57.50;;;;;;5115185;28;20046;-70
2022/05/04 01:47:08;;;;;;;9.30;3.35;;;13.10;57.50;;;;;;5115039;28;20028;-70
2022/05/04 01:49:33;;;;;;;8.80;3.63;;;13.10;57.50;;;;;;5115062;28;20017;-70
2022/05/04 01:51:59;;;;;;;8.43;3.42;;;13.10;57.70;;;;;;5115040;28;20056;-70
2022/05/04 01:54:26;;;;;;;10.55;3.50;;;13.10;57.50;;;;;;5115008;28;20055;-70
2022/05/04 01:56:52;;;;;;;8.63;3.50;;;13.10;57.50;;;;;;5114952;28;20398;-70
2022/05/04 01:59:17;;;;;;;7.32;2.97;;;13.10;57.30;;;;;;5114865;28;20032;-70
2022/05/04 02:01:43;;;;;;;8.40;3.38;;;13.10;57.20;;;;;;5114799;28;20028;-70
2022/05/04 02:04:09;;;;;;;12.93;3.45;;;13.00;57.30;;;;;;5114818;28;20048;-70
2022/05/04 02:06:36;;;;;;;7.60;3.22;;;13.00;57.40;;;;;;5114597;28;20425;-70
2022/05/04 02:09:03;;;;;;;6.40;3.28;;;13.00;57.50;;;;;;5114588;28;20038;-70
2022/05/04 02:11:32;;;;;;;9.30;3.00;;;13.00;58.00;;;;;;5114658;28;20043;-70
2022/05/04 02:13:58;;;;;;;8.30;3.17;;;13.00;58.00;;;;;;5114576;28;20016;-70
2022/05/04 02:16:23;;;;;;;9.75;4.03;;;13.00;57.80;;;;;;5114568;28;20024;-70
2022/05/04 02:18:49;;;;;;;11.60;3.80;;;12.90;57.60;;;;;;5114509;28;20486;-70
2022/05/04 02:21:15;;;;;;;11.23;3.50;;;12.90;57.50;;;;;;5114435;28;20043;-70
2022/05/04 02:23:40;;;;;;;10.07;3.60;;;12.90;57.60;;;;;;5114412;28;20020;-70
2022/05/04 02:26:06;;;;;;;7.75;3.30;;;12.90;57.60;;;;;;5114497;28;20031;-70
2022/05/04 02:28:31;;;;;;;9.48;3.50;;;12.90;57.60;;;;;;5114207;28;20153;-70
2022/05/04 02:30:57;;;;;;;10.20;3.40;;;12.90;57.60;;;;;;5114279;28;20035;-70
2022/05/04 02:33:23;;;;;;;7.85;3.60;;;12.90;57.50;;;;;;5114066;28;20078;-70
2022/05/04 02:38:32;;;;;;;7.25;3.13;;;12.90;57.50;;;;;;5114327;28;20111;-70
2022/05/04 02:40:58;;;;;;;8.70;3.58;;;12.90;57.50;;;;;;5114123;28;20028;-70
2022/05/04 02:43:25;;;;;;;8.15;3.53;;;12.90;57.70;;;;;;5114075;28;20185;-70
2022/05/04 02:45:50;;;;;;;4.97;3.05;;;12.80;57.90;;;;;;5114048;28;20049;-70
2022/05/04 02:48:16;;;;;;;8.43;3.15;;;12.80;57.90;;;;;;5113903;28;20047;-70
2022/05/04 02:50:42;;;;;;;9.05;2.97;;;12.80;58.20;;;;;;5113975;28;20034;-70
2022/05/04 02:53:07;;;;;;;11.23;3.50;;;12.80;58.20;;;;;;5113926;28;20054;-70
2022/05/04 02:55:33;;;;;;;8.73;3.47;;;12.80;58.30;;;;;;5113846;28;20035;-70
2022/05/04 02:58:00;;;;;;;10.40;3.58;;;12.80;58.20;;;;;;5113921;28;20080;-70
2022/05/04 03:00:26;;;;;;;8.20;3.10;;;12.80;58.20;;;;;;5113795;28;20018;-70
2022/05/04 03:02:53;;;;;;;9.50;3.40;;;12.70;58.40;;;;;;5113736;28;20051;-70
2022/05/04 03:05:19;;;;;;;6.72;3.10;;;12.70;58.40;;;;;;5113707;28;20031;-70
2022/05/04 03:07:44;;;;;;;9.40;3.17;;;12.70;58.20;;;;;;5113595;28;20036;-70
2022/05/04 03:10:10;;;;;;;6.50;2.83;;;12.70;58.10;;;;;;5095715;28;20070;-70
2022/05/04 03:12:36;;;;;;;8.95;3.47;;;12.80;58.10;;;;;;5095845;28;20050;-70
2022/05/04 03:15:03;;;;;;;9.48;3.53;;;12.70;58.00;;;;;;5113596;28;20028;-70
2022/05/04 03:17:29;;;;;;;8.77;3.63;;;12.70;58.00;;;;;;5112951;28;20024;-70
2022/05/04 03:19:55;;;;;;;11.93;3.65;;;12.70;58.00;;;;;;5113179;28;20042;-70
2022/05/04 03:22:20;;;;;;;11.55;3.70;;;12.70;58.10;;;;;;5113502;28;20111;-70
2022/05/04 03:24:46;;;;;;;5.20;3.22;;;12.70;58.20;;;;;;5113465;28;20092;-70
2022/05/04 03:27:12;;;;;;;5.97;3.10;;;12.70;58.30;;;;;;5113356;28;20035;-70
2022/05/04 03:29:37;;;;;;;6.18;3.28;;;12.70;58.40;;;;;;5095515;28;20021;-70
2022/05/04 03:32:03;;;;;;;7.35;3.03;;;12.70;58.30;;;;;;5113413;28;20024;-70
2022/05/04 03:34:30;;;;;;;5.88;2.75;;;12.70;58.50;;;;;;5113258;28;20040;-70
2022/05/04 03:36:57;;;;;;;9.57;3.13;;;12.60;58.70;;;;;;5113504;28;20020;-70
2022/05/04 03:39:23;;;;;;;8.88;3.45;;;12.50;58.90;;;;;;5113459;28;20028;-70
2022/05/04 03:41:49;;;;;;;12.27;3.95;;;12.50;58.60;;;;;;5113443;28;20032;-70
2022/05/04 03:44:16;;;;;;;12.40;3.38;;;12.50;58.60;;;;;;5113346;28;20047;-70
2022/05/04 03:46:46;;;;;;;10.63;3.53;;;12.50;58.50;;;;;;5113392;28;20086;-70
2022/05/04 03:49:14;;;;;;;7.68;2.80;;;12.50;58.80;;;;;;5113265;28;20028;-70
2022/05/04 03:51:40;;;;;;;9.55;3.10;;;12.50;58.80;;;;;;5113218;28;20032;-70
2022/05/04 03:54:06;;;;;;;10.80;3.40;;;12.50;58.90;;;;;;5113208;28;20017;-70
2022/05/04 03:56:32;;;;;;;9.52;3.22;;;12.40;59.10;;;;;;5113153;28;20020;-70
2022/05/04 03:58:58;;;;;;;10.85;3.35;;;12.40;59.30;;;;;;5113144;28;20382;-70
2022/05/04 04:01:24;;;;;;;10.88;3.35;;;12.30;59.50;;;;;;5095463;28;20084;-70
2022/05/04 04:03:49;;;;;;;10.10;3.53;;;12.30;59.60;;;;;;5113092;28;20036;-70
2022/05/04 04:06:15;;;;;;;8.20;3.30;;;12.30;59.60;;;;;;5113085;28;20028;-70
2022/05/04 04:08:41;;;;;;;8.50;3.67;;;12.20;60.00;;;;;;5112989;28;20025;-70
2022/05/04 04:11:07;;;;;;;9.43;3.65;;;12.20;60.00;;;;;;5113054;28;20038;-70
2022/05/04 04:13:33;;;;;;;10.50;3.35;;;12.30;59.90;;;;;;5112982;28;20025;-70
2022/05/04 04:15:58;;;;;;;10.73;3.58;;;12.30;60.10;;;;;;5113006;28;20115;-70
2022/05/04 04:18:26;;;;;;;8.13;3.38;;;12.30;60.10;;;;;;5112983;28;20032;-70
2022/05/04 04:23:37;;;;;;;9.55;3.25;;;12.30;60.20;;;;;;5113181;28;20062;-70
2022/05/04 04:26:06;;;;;;;10.13;3.55;;;12.20;60.00;;;;;;5112925;28;20032;-70
2022/05/04 04:28:34;;;;;;;6.72;3.08;;;12.20;60.00;;;;;;5112788;28;20051;-70
2022/05/04 04:31:00;;;;;;;11.73;3.72;;;12.20;60.10;;;;;;5116277;28;20038;-70
2022/05/04 04:33:26;;;;;;;7.10;3.40;;;12.20;60.20;;;;;;5116320;28;20468;-70
2022/05/04 04:36:00;;;;;;;7.35;3.17;;;12.30;60.10;;;;;;5116556;28;20068;-70
2022/05/04 04:38:26;;;;;;;8.07;3.28;;;12.20;60.20;;;;;;5116449;28;20020;-71
2022/05/04 04:40:52;;;;;;;11.15;3.80;;;12.20;60.10;;;;;;5098522;28;20024;-70
2022/05/04 04:43:18;;;;;;;7.43;3.22;;;12.20;60.30;;;;;;5116387;28;20095;-71
2022/05/04 04:45:48;;;;;;;10.27;3.42;;;12.20;60.30;;;;;;5116367;28;20020;-71
2022/05/04 04:48:16;;;;;;;6.75;3.17;;;12.20;60.10;;;;;;5098148;28;20024;-72
2022/05/04 04:50:45;;;;;;;7.70;3.38;;;12.20;60.00;;;;;;5116278;28;20027;-70
2022/05/04 04:53:11;;;;;;;11.75;4.35;;;12.20;60.00;;;;;;5116270;28;20024;-70
2022/05/04 04:55:39;;;;;;;9.93;3.92;;;12.20;60.00;;;;;;5116156;28;20031;-70
2022/05/04 04:58:05;;;;;;;8.90;3.30;;;12.20;60.10;;;;;;5116101;28;20032;-70
2022/05/04 05:00:30;;;;;;;11.88;3.67;;;12.20;60.00;;;;;;5115888;28;20058;-70
2022/05/04 05:02:56;;;;;;;10.18;3.47;;;12.20;60.10;;;;;;5116031;28;20110;-70
2022/05/04 05:05:23;;;;;;;9.73;3.08;;;12.20;60.00;;;;;;5115947;28;20020;-70
2022/05/04 05:07:48;;;;;;;9.90;3.47;;;12.20;59.80;;;;;;5098182;28;20023;-70
2022/05/04 05:10:14;;;;;;;11.23;3.40;;;12.20;59.70;;;;;;5115912;28;20028;-70
2022/05/04 05:12:40;;;;;;;11.27;3.72;;;12.20;59.80;;;;;;5115831;28;20021;-70
2022/05/04 05:17:51;;;;;;;10.13;3.83;;;12.20;59.70;;;;;;5115889;28;20418;-70
2022/05/04 05:20:17;;;;;;;11.15;3.80;;;12.10;59.60;;;;;;5115780;28;20020;-70
2022/05/04 05:22:43;;;;;;;7.25;3.15;;;12.20;60.00;;;;;;5115684;28;20040;-70
2022/05/04 05:25:09;;;;;;;11.30;3.67;;;12.10;59.60;;;;;;5115571;28;20054;-70
2022/05/04 05:27:35;;;;;;;9.60;3.50;;;12.20;59.70;;;;;;5115400;28;20028;-70
2022/05/04 05:30:01;;;;;;;12.00;3.30;;;12.20;59.60;;;;;;5115471;28;20049;-70
2022/05/04 05:32:27;;;;;;;12.15;3.95;;;12.20;59.60;;;;;;5115465;28;20024;-70
2022/05/04 05:34:52;;;;;;;13.25;4.22;;;12.10;59.50;;;;;;5115280;28;20048;-71
2022/05/04 05:37:20;;;;;;;8.93;3.85;;;12.10;59.70;;;;;;5115336;28;20039;-71
2022/05/04 05:39:46;;;;;;;10.32;3.63;;;12.10;59.90;;;;;;5114835;28;20016;-71
2022/05/04 05:42:12;;;;;;;10.20;3.65;;;12.10;59.90;;;;;;5115314;28;20044;-68
2022/05/04 05:44:37;;;;;;;11.13;3.55;;;12.10;59.70;;;;;;5115186;28;20024;-68
2022/05/04 05:47:04;;;;;;;11.73;3.50;;;12.10;59.50;;;;;;5115151;28;20020;-68
2022/05/04 05:49:30;;;;;;;9.63;3.40;;;12.10;59.40;;;;;;5097024;28;20031;-68
2022/05/04 05:51:57;;;;;;;12.90;3.97;;;12.20;59.40;;;;;;5115034;28;20024;-68
2022/05/04 05:54:22;;;;;;;11.07;3.60;;;12.20;59.30;;;;;;5115031;28;20050;-68
2022/05/04 05:56:48;;;;;;;9.75;3.28;;;12.20;59.30;;;;;;5114983;28;20080;-68
2022/05/04 05:59:14;;;;;;;19.60;4.15;;;12.20;59.30;;;;;;5114862;28;20052;-69
2022/05/04 06:01:39;;;;;;;12.55;3.40;;;12.20;59.40;;;;;;5114860;28;20083;-69
2022/05/04 06:04:05;;;;;;;12.07;3.80;;;12.30;59.10;;;;;;5114923;28;20032;-68
2022/05/04 06:06:31;;;;;;;9.57;3.83;;;12.30;59.10;;;;;;5114840;28;20024;-68
2022/05/04 06:08:57;;;;;;;8.98;3.10;;;12.20;59.20;;;;;;5114673;28;20044;-68
2022/05/04 06:11:23;;;;;;;12.25;3.72;;;12.30;58.90;;;;;;5114675;28;20490;-68
2022/05/04 06:13:54;;;;;;;8.07;3.63;;;12.30;58.50;;;;;;5114616;28;20039;-68
2022/05/04 06:16:20;;;;;;;7.43;3.50;;;12.30;58.40;;;;;;5114629;28;20021;-68
2022/05/04 06:18:46;;;;;;;10.23;3.63;;;12.30;58.60;;;;;;5114534;28;20034;-68
2022/05/04 06:21:12;;;;;;;7.88;3.42;;;12.30;59.00;;;;;;5114461;28;20028;-68
2022/05/04 06:23:38;;;;;;;13.32;5.07;;;12.30;58.60;;;;;;5114424;28;20035;-68
2022/05/04 06:26:03;;;;;;;9.93;3.70;;;12.30;58.70;;;;;;5114414;28;20036;-68
2022/05/04 06:28:29;;;;;;;9.27;3.58;;;12.30;58.60;;;;;;5114192;28;20043;-68
2022/05/04 06:36:24;;;;;;;12.65;4.53;;;12.40;58.30;;;;;;5114395;28;20059;-68
2022/05/04 06:38:49;;;;;;;9.52;4.00;;;12.40;58.40;;;;;;5114294;28;20032;-68
2022/05/04 06:41:15;;;;;;;12.13;4.40;;;12.40;58.30;;;;;;5096169;28;20040;-68
2022/05/04 06:43:41;;;;;;;11.52;3.70;;;12.50;58.30;;;;;;5114113;28;20032;-68
2022/05/04 06:46:07;;;;;;;10.57;4.13;;;12.50;58.30;;;;;;5114145;28;20032;-68
2022/05/04 06:48:33;;;;;;;14.73;3.90;;;12.50;58.00;;;;;;5113929;28;20040;-68
2022/05/04 06:50:59;;;;;;;11.18;3.92;;;12.50;57.80;;;;;;5113914;28;20072;-68
2022/05/04 06:53:25;;;;;;;9.50;3.40;;;12.60;57.90;;;;;;5113133;28;20028;-68
2022/05/04 06:55:50;;;;;;;10.07;3.90;;;12.70;57.80;;;;;;5113883;28;20079;-68
2022/05/04 06:58:16;;;;;;;11.20;3.88;;;12.70;57.90;;;;;;5113856;28;20031;-68
2022/05/04 07:00:42;;;;;;;10.15;4.18;;;12.80;57.80;;;;;;5113788;28;20051;-68
2022/05/04 07:03:08;;;;;;;11.13;4.03;;;12.90;57.80;;;;;;5113727;28;20032;-68
2022/05/04 07:05:33;;;;;;;12.30;4.18;;;13.00;57.80;;;;;;5113752;28;20039;-68
2022/05/04 07:07:59;;;;;;;15.65;4.90;;;13.00;58.00;;;;;;5095723;28;20028;-68
2022/05/04 07:10:24;;;;;;;11.60;4.22;;;13.00;57.80;;;;;;5095697;28;20028;-68
2022/05/04 07:12:50;;;;;;;10.20;4.15;;;13.00;57.60;;;;;;5095817;28;20024;-68
2022/05/04 07:15:16;;;;;;;9.20;3.90;;;13.00;57.30;;;;;;5113736;28;20020;-68
2022/05/04 07:17:42;;;;;;;13.68;4.22;;;13.00;57.50;;;;;;5113540;28;20032;-68
2022/05/04 07:20:09;;;;;;;9.65;3.47;;;13.10;57.40;;;;;;5113646;28;20020;-68
2022/05/04 07:22:35;;;;;;;11.20;3.78;;;13.20;57.30;;;;;;5113469;28;20035;-68
2022/05/04 07:25:01;;;;;;;10.23;3.47;;;13.20;56.90;;;;;;5113478;28;20035;-68
2022/05/04 07:27:26;;;;;;;11.07;3.85;;;13.20;56.60;;;;;;5113362;28;20058;-68
2022/05/04 07:29:52;;;;;;;12.85;4.10;;;13.30;56.70;;;;;;5113274;28;20039;-68
2022/05/04 07:32:18;;;;;;;10.90;4.18;;;13.30;57.30;;;;;;5113410;28;20027;-68
2022/05/04 07:34:43;;;;;;;14.15;5.13;;;13.40;57.00;;;;;;5113222;28;20052;-68
2022/05/04 07:37:09;;;;;;;7.70;3.78;;;13.40;56.40;;;;;;5113348;28;20036;-68
2022/05/04 07:42:26;;;;;;;8.30;3.50;;;13.60;55.30;;;;;;5113400;28;20043;-68
2022/05/04 07:44:59;;;;;;;;;;;13.60;55.00;;;;;;5113867;28;20024;-68
2022/05/04 07:47:29;;;;;;;14.40;3.58;;;13.30;55.20;;;;;;5113216;28;19908;-68
2022/05/04 07:49:55;;;;;;;7.63;3.55;;;13.40;55.80;;;;;;5113228;28;20020;-68
2022/05/04 07:52:21;;;;;;;16.08;4.25;;;13.40;54.70;;;;;;5113208;28;20072;-68
2022/05/04 07:54:47;;;;;;;10.32;4.00;;;13.40;56.60;;;;;;5113293;28;20016;-68
2022/05/04 07:57:13;;;;;;;11.13;3.78;;;13.50;55.10;;;;;;5113133;28;20059;-68
2022/05/04 07:59:39;;;;;;;9.32;3.50;;;13.60;55.90;;;;;;5113076;28;20036;-68
2022/05/04 08:04:50;;;;;;;11.73;3.90;;;13.70;54.00;;;;;;5116761;28;20039;-68
2022/05/04 08:07:17;;;;;;;9.40;4.25;;;13.50;54.40;;;;;;5117036;28;20036;-68
2022/05/04 08:09:42;;;;;;;6.75;4.20;;;13.60;55.10;;;;;;5116992;28;20028;-68
2022/05/04 08:12:11;;;;;;;11.68;3.85;;;13.80;55.00;;;;;;5117020;28;20069;-68
2022/05/04 08:14:37;;;;;;;12.55;4.35;;;13.90;54.70;;;;;;5116957;28;20039;-68
2022/05/04 08:17:03;;;;;;;9.68;4.13;;;13.90;53.30;;;;;;5116898;28;20016;-68
2022/05/04 08:19:28;;;;;;;11.95;4.30;;;13.70;53.00;;;;;;5116848;28;20024;-68
2022/05/04 08:21:54;;;;;;;10.35;4.50;;;13.80;53.70;;;;;;5116770;28;20030;-68
2022/05/04 08:24:21;;;;;;;8.45;3.85;;;13.90;55.60;;;;;;5116897;28;20028;-68
2022/05/04 08:26:46;;;;;;;9.77;3.95;;;14.10;55.70;;;;;;5116412;28;20028;-69
2022/05/04 08:29:15;;;;;;;10.25;4.75;;;14.30;54.30;;;;;;5116434;28;20036;-68
2022/05/04 08:31:40;;;;;;;12.02;4.22;;;14.40;53.70;;;;;;5116583;28;20017;-68
2022/05/04 08:34:07;;;;;;;10.88;4.30;;;14.50;52.60;;;;;;5116347;28;20044;-68
2022/05/04 08:36:33;;;;;;;10.88;5.10;;;14.50;52.80;;;;;;5116570;28;20024;-68
2022/05/04 08:38:58;;;;;;;12.45;4.65;;;14.60;53.10;;;;;;5116462;28;20028;-67
2022/05/04 08:41:25;;;;;;;13.35;4.95;;;14.70;52.80;;;;;;5098405;28;20048;-67
2022/05/04 08:43:52;;;;;;;10.55;4.30;;;14.80;52.30;;;;;;5116422;28;20537;-67
2022/05/04 08:46:23;;;;;;;9.70;4.72;;;14.90;52.30;;;;;;5116325;28;20026;-67
2022/05/04 08:48:49;;;;;;;11.18;4.50;;;15.00;52.00;;;;;;5116289;28;20027;-67
2022/05/04 08:51:16;;;;;;;14.93;7.07;;;15.10;50.80;;;;;;5116234;28;20024;-67
2022/05/04 08:53:44;;;;;;;15.35;5.60;;;15.00;51.00;;;;;;5116345;28;20024;-68
2022/05/04 08:56:10;;;;;;;10.10;4.60;;;14.90;51.60;;;;;;5116157;28;20020;-67
2022/05/04 08:58:37;;;;;;;16.20;5.07;;;15.00;52.60;;;;;;5116144;28;20022;-67
2022/05/04 09:01:03;;;;;;;14.52;4.55;;;15.10;52.10;;;;;;5116112;28;20020;-67
2022/05/04 09:03:29;;;;;;;11.85;4.90;;;15.20;51.30;;;;;;5116033;28;20056;-67
2022/05/04 09:05:55;;;;;;;9.95;4.80;;;15.40;50.90;;;;;;5115989;28;20039;-67
2022/05/04 09:08:23;;;;;;;10.98;4.97;;;15.40;49.40;;;;;;5115930;28;20024;-67
2022/05/04 09:10:49;;;;;;;11.43;5.03;;;15.20;49.10;;;;;;5115856;28;20020;-67
2022/05/04 09:13:18;;;;;;;14.02;4.72;;;15.30;50.00;;;;;;5115832;28;20064;-67
2022/05/04 09:15:43;;;;;;;11.63;4.90;;;15.40;50.70;;;;;;5114838;28;20027;-67
2022/05/04 09:18:13;;;;;;;11.18;4.68;;;15.50;49.90;;;;;;5115709;28;20051;-67
2022/05/04 09:20:58;;;;;;;10.63;4.47;;;15.60;49.90;;;;;;5115687;28;20031;-68
2022/05/04 09:23:32;;;;;;;14.50;4.43;;;15.70;49.60;;;;;;5115597;28;20020;-68
2022/05/04 09:26:05;;;;;;;11.18;4.78;;;15.80;49.00;;;;;;5115590;28;20020;-67
2022/05/04 09:28:32;;;;;;;8.02;4.97;;;15.90;48.60;;;;;;5115437;28;20020;-68
2022/05/04 09:31:09;;;;;;;9.85;4.65;;;15.90;48.90;;;;;;5115485;28;20050;-67
2022/05/04 09:33:37;;;;;;;11.95;5.45;;;16.00;48.60;;;;;;5115311;28;20051;-67
2022/05/04 09:36:04;;;;;;;16.35;5.43;;;16.10;48.30;;;;;;5115404;28;20103;-67
2022/05/04 09:47:20;;;;;;;11.50;5.00;;;16.40;48.10;;;;;;5013471;28;20034;-67
2022/05/04 09:49:49;;;;;;;11.32;5.03;;;16.40;48.10;;;;;;5013561;28;20080;-67
2022/05/04 09:52:21;;;;;;;15.05;5.90;;;16.50;47.20;;;;;;5068184;28;20040;-68
2022/05/04 09:54:46;;;;;;;10.40;5.07;;;16.50;47.70;;;;;;5115054;28;20109;-67
2022/05/04 09:57:12;;;;;;;11.63;5.30;;;16.50;47.30;;;;;;5114972;28;20050;-67
2022/05/04 09:59:38;;;;;;;11.15;5.22;;;16.60;47.60;;;;;;5114958;28;20036;-67
2022/05/04 10:02:07;;;;;;;11.88;5.40;;;16.80;47.40;;;;;;5115011;28;20039;-67
2022/05/04 10:04:34;;;;;;;18.42;6.35;;;16.80;47.30;;;;;;5114875;28;20028;-67
2022/05/04 10:07:01;;;;;;;14.70;6.22;;;16.90;47.70;;;;;;5114824;28;20084;-67
2022/05/04 10:09:27;;;;;;;12.02;5.18;;;17.00;46.40;;;;;;5114670;28;20024;-68
2022/05/04 10:11:57;;;;;;;9.25;5.22;;;16.90;45.50;;;;;;5114705;28;20020;-68
2022/05/04 10:14:23;;;;;;;10.13;4.68;;;16.90;46.50;;;;;;5114804;28;20024;-68
2022/05/04 10:17:18;;;;;;;12.07;5.72;;;17.00;46.10;;;;;;5114618;28;20084;-68
2022/05/04 10:20:12;;;;;;;13.05;5.55;;;17.10;46.10;;;;;;5102232;28;20024;-68
2022/05/04 10:22:56;;;;;;;10.35;5.25;;;17.20;47.00;;;;;;5111207;28;20034;-68
2022/05/04 10:25:24;;;;;;;11.52;5.85;;;17.30;46.30;;;;;;5114615;28;20031;-68
2022/05/04 10:28:02;;;;;;;9.65;5.35;;;17.40;45.90;;;;;;5114191;28;20024;-67
2022/05/04 10:30:31;;;;;;;11.38;5.90;;;17.40;45.50;;;;;;5114396;28;20017;-68
2022/05/04 10:33:08;;;;;;;11.75;5.75;;;17.50;45.70;;;;;;5114139;28;20030;-68
2022/05/04 10:35:45;;;;;;;12.00;5.90;;;17.50;45.00;;;;;;5114298;28;20020;-68
2022/05/04 10:38:13;;;;;;;9.57;5.65;;;17.40;45.30;;;;;;5114189;28;20092;-68
2022/05/04 10:41:09;;;;;;;11.48;5.85;;;17.50;45.50;;;;;;5114151;28;20048;-67
2022/05/04 10:43:47;;;;;;;10.43;5.43;;;17.60;46.40;;;;;;5093341;28;20036;-69
2022/05/04 10:46:21;;;;;;;10.73;5.38;;;17.80;44.90;;;;;;5114152;28;20028;-67
2022/05/04 10:49:03;;;;;;;12.23;5.82;;;17.90;45.00;;;;;;5113927;28;20084;-67
2022/05/04 10:51:37;;;;;;;12.30;5.28;;;18.00;44.20;;;;;;5113743;28;20039;-67
2022/05/04 10:54:17;;;;;;;12.98;5.80;;;18.10;44.20;;;;;;5114140;28;20022;-68
2022/05/04 10:56:50;;;;;;;10.70;6.45;;;18.10;43.10;;;;;;5113949;28;20046;-68
2022/05/04 10:59:31;;;;;;;14.95;5.70;;;18.10;43.00;;;;;;5113869;28;20049;-69
2022/05/04 11:02:05;;;;;;;12.75;6.18;;;18.10;44.00;;;;;;5113814;28;20018;-69
2022/05/04 11:04:32;;;;;;;12.40;6.45;;;18.20;43.80;;;;;;5113836;28;20084;-69
2022/05/04 11:07:02;;;;;;;11.38;5.65;;;18.20;43.30;;;;;;5113766;28;20103;-69
2022/05/04 11:09:32;;;;;;;12.88;6.07;;;18.20;43.30;;;;;;5113672;28;20478;-69
2022/05/04 11:11:59;;;;;;;12.23;6.50;;;18.30;42.90;;;;;;5113681;28;20075;-69
2022/05/04 11:14:25;;;;;;;10.20;5.97;;;18.30;42.30;;;;;;5113678;28;20016;-69
2022/05/04 11:16:57;;;;;;;11.57;6.15;;;18.40;42.40;;;;;;5113523;28;20017;-67
2022/05/04 11:19:25;;;;;;;11.50;5.90;;;18.40;42.70;;;;;;5113648;28;20025;-69
2022/05/04 11:21:51;;;;;;;13.63;6.47;;;18.50;42.50;;;;;;5113532;28;20027;-69
2022/05/04 11:24:17;;;;;;;19.52;7.72;;;18.60;44.10;;;;;;5113526;28;20051;-69
2022/05/04 11:26:45;;;;;;;10.07;5.90;;;18.70;42.70;;;;;;5113459;28;20088;-67
2022/05/04 11:29:14;;;;;;;12.70;5.90;;;18.80;42.80;;;;;;5113295;28;20024;-69
2022/05/04 11:31:43;;;;;;;14.10;6.82;;;18.90;43.00;;;;;;5113508;28;20048;-70
2022/05/04 11:34:09;;;;;;;9.98;6.00;;;19.00;42.50;;;;;;5113211;28;20048;-70
2022/05/04 11:36:35;;;;;;;12.90;5.80;;;19.00;42.10;;;;;;5113397;28;20031;-69
2022/05/04 11:39:03;;;;;;;11.02;6.38;;;19.00;42.20;;;;;;5117599;28;20047;-69
2022/05/04 11:41:28;;;;;;;11.30;5.93;;;19.10;41.30;;;;;;5120032;28;20094;-67
2022/05/04 11:43:54;;;;;;;14.23;6.75;;;19.00;40.60;;;;;;5120081;28;20031;-69
2022/05/04 11:46:21;;;;;;;16.02;6.38;;;18.70;39.30;;;;;;5120070;28;20039;-67
2022/05/04 11:48:47;;;;;;;9.45;5.70;;;18.60;41.60;;;;;;5120000;28;20024;-68
2022/05/04 11:51:15;;;;;;;11.50;6.60;;;18.60;42.10;;;;;;5120007;28;20016;-67
2022/05/04 11:53:41;;;;;;;13.50;6.40;;;18.80;41.60;;;;;;5120032;28;20034;-67
2022/05/04 11:56:08;;;;;;;11.32;5.95;;;18.90;41.00;;;;;;5119964;28;20032;-67
2022/05/04 11:58:36;;;;;;;12.02;6.28;;;19.10;41.40;;;;;;5101918;28;20035;-68
2022/05/04 12:01:04;;;;;;;10.75;6.00;;;19.10;41.50;;;;;;5119874;28;20050;-67
2022/05/04 12:03:32;;;;;;;15.50;6.75;;;19.20;40.90;;;;;;5119908;28;20022;-68
2022/05/04 12:06:01;;;;;;;12.82;6.38;;;19.30;40.60;;;;;;5119834;28;20024;-67
2022/05/04 12:08:28;;;;;;;10.63;6.07;;;19.50;40.30;;;;;;5119789;28;20024;-67
2022/05/04 12:10:54;;;;;;;12.50;6.88;;;19.60;39.80;;;;;;5119864;28;20019;-68
2022/05/04 12:13:26;;;;;;;11.70;6.68;;;19.60;39.20;;;;;;5119815;28;20056;-68
2022/05/04 12:15:54;;;;;;;14.07;6.75;;;19.60;38.60;;;;;;5119875;28;20069;-68
2022/05/04 12:18:20;;;;;;;13.18;6.50;;;19.60;39.90;;;;;;5119760;28;20030;-68
2022/05/04 12:20:49;;;;;;;9.98;5.60;;;19.70;39.30;;;;;;5119708;28;20028;-67
2022/05/04 12:23:15;;;;;;;10.57;6.22;;;19.80;39.20;;;;;;5119837;28;20058;-67
2022/05/04 12:25:43;;;;;;;11.82;6.97;;;19.90;38.80;;;;;;5119830;28;20095;-67
2022/05/04 12:28:09;;;;;;;18.75;6.85;;;19.90;38.60;;;;;;5119632;28;20027;-68
2022/05/04 12:33:32;;;;;;;;;;;20.00;38.40;;;;;;5120034;28;20101;-68
2022/05/04 12:36:00;;;;;;;10.00;5.97;;;19.90;37.50;;;;;;5119635;28;19905;-67
2022/05/04 12:38:27;;;;;;;11.90;6.53;;;19.60;38.80;;;;;;5119524;28;20043;-67
2022/05/04 12:40:53;;;;;;;11.23;6.28;;;19.70;39.10;;;;;;5119553;28;20032;-68
2022/05/04 12:43:19;;;;;;;11.85;6.15;;;19.90;38.80;;;;;;5119512;28;20028;-68
2022/05/04 12:45:44;;;;;;;12.10;6.20;;;19.90;39.00;;;;;;5119490;28;20088;-68
2022/05/04 12:48:10;;;;;;;10.55;5.80;;;20.10;38.40;;;;;;5084841;28;20036;-68
2022/05/04 12:50:37;;;;;;;12.98;6.22;;;20.20;38.60;;;;;;5097976;28;20032;-68
2022/05/04 12:53:05;;;;;;;12.18;6.53;;;20.30;39.20;;;;;;5116296;28;20023;-68
2022/05/04 12:58:15;;;;;;;10.55;5.85;;;20.50;37.70;;;;;;5116348;28;20035;-68
2022/05/04 13:00:42;;;;;;;11.05;6.20;;;20.50;37.30;;;;;;5116126;28;20024;-68
2022/05/04 13:03:11;;;;;;;12.57;5.88;;;20.50;37.90;;;;;;5098406;28;20042;-68
2022/05/04 13:05:40;;;;;;;10.63;6.13;;;20.50;36.70;;;;;;5115989;28;20020;-68
2022/05/04 13:08:07;;;;;;;12.25;6.07;;;20.40;37.10;;;;;;5115955;28;20039;-68
2022/05/04 13:10:33;;;;;;;9.73;6.13;;;20.50;37.00;;;;;;5115909;28;20045;-68
2022/05/04 13:12:59;;;;;;;11.82;5.82;;;20.50;36.30;;;;;;5115864;28;20031;-68
2022/05/04 13:15:25;;;;;;;13.05;5.97;;;20.60;37.10;;;;;;5115831;28;20084;-68
2022/05/04 13:17:51;;;;;;;15.07;6.28;;;20.70;37.10;;;;;;5097874;28;20032;-68